Time;durP1;ratioP1;P1;durP2;ratioP2;P2;SDS_P1;SDS_P2;PMS_P1;PMS_P2;Temp;Humidity;BMP_temperature;BMP_pressure;BME280_temperature;BME280_humidity;BME280_pressure;Samples;Min_cycle;Max_cycle;Signal;HPM_P1;HPM_P2
2024/01/01 00:02:28;;;;;;;;;;;8.50;99.90;;;;;;8441144;28;19971;-76
2024/01/01 00:06:30;;;;;;;;;;;8.40;99.90;;;;;;8435655;28;19935;-76
2024/01/01 00:10:32;;;;;;;;;;;8.40;99.90;;;;;;8437020;28;19939;-76
2024/01/01 00:14:34;;;;;;;;;;;8.30;99.90;;;;;;8436502;28;19924;-76
2024/01/01 00:18:35;;;;;;;;;;;8.20;99.90;;;;;;8443938;28;19945;-76
2024/01/01 00:22:37;;;;;;;;;;;8.10;99.90;;;;;;8441619;28;19953;-76
2024/01/01 00:26:39;;;;;;;;;;;8.10;99.90;;;;;;8420062;28;19924;-76
2024/01/01 00:30:40;;;;;;;;;;;8.00;99.90;;;;;;8440846;28;19924;-76
2024/01/01 00:34:44;;;;;;;;;;;8.00;99.90;;;;;;8438848;28;19924;-76
2024/01/01 00:38:46;;;;;;;;;;;8.00;99.90;;;;;;8432933;28;19932;-76
2024/01/01 00:42:48;;;;;;;;;;;7.90;99.90;;;;;;8440691;28;19946;-76
2024/01/01 00:46:49;;;;;;;;;;;7.80;99.90;;;;;;8432746;28;20357;-76
2024/01/01 00:50:51;;;;;;;;;;;7.80;99.90;;;;;;8449297;28;19924;-75
2024/01/01 00:54:53;;;;;;;;;;;7.80;99.90;;;;;;8442573;28;19931;-76
2024/01/01 00:58:54;;;;;;;;;;;7.80;99.90;;;;;;8442929;28;20295;-76
2024/01/01 01:02:56;;;;;;;;;;;7.80;99.90;;;;;;8438275;28;19924;-76
2024/01/01 01:06:58;;;;;;;;;;;7.80;99.90;;;;;;8425368;28;20445;-76
2024/01/01 01:10:59;;;;;;;;;;;7.80;99.90;;;;;;8441340;28;19924;-76
2024/01/01 01:15:01;;;;;;;;;;;7.80;99.90;;;;;;8443768;28;19924;-76
2024/01/01 01:19:03;;;;;;;;;;;7.80;99.90;;;;;;8426513;28;19931;-75
2024/01/01 01:23:04;;;;;;;;;;;7.80;99.90;;;;;;8443871;28;20248;-76
2024/01/01 01:27:06;;;;;;;;;;;7.80;99.90;;;;;;8446356;28;20019;-76
2024/01/01 01:31:08;;;;;;;;;;;7.80;99.90;;;;;;8443243;28;19924;-75
2024/01/01 01:35:10;;;;;;;;;;;7.70;99.90;;;;;;8425343;28;19923;-75
2024/01/01 01:39:12;;;;;;;;;;;7.70;99.90;;;;;;8447332;28;20397;-76
2024/01/01 01:43:18;;;;;;;;;;;7.60;99.90;;;;;;8438591;28;19924;-76
2024/01/01 01:47:21;;;;;;;;;;;7.60;99.90;;;;;;8448669;28;19931;-76
2024/01/01 01:51:23;;;;;;;;;;;7.60;99.90;;;;;;8435964;28;19930;-76
2024/01/01 01:55:25;;;;;;;;;;;7.60;99.90;;;;;;8417218;28;19935;-76
2024/01/01 01:59:27;;;;;;;;;;;7.60;99.90;;;;;;8419730;28;19924;-75
2024/01/01 02:03:29;;;;;;;;;;;7.50;99.90;;;;;;8447749;28;19931;-76
2024/01/01 02:07:30;;;;;;;;;;;7.40;99.90;;;;;;8444402;28;19932;-76
2024/01/01 02:11:32;;;;;;;;;;;7.30;99.90;;;;;;8440635;28;20388;-75
2024/01/01 02:15:34;;;;;;;;;;;7.20;99.90;;;;;;8441370;28;19950;-75
2024/01/01 02:19:36;;;;;;;;;;;7.10;99.90;;;;;;8441950;28;19924;-75
2024/01/01 02:23:39;;;;;;;;;;;6.90;99.90;;;;;;8422397;28;20371;-75
2024/01/01 02:27:41;;;;;;;;;;;6.90;99.90;;;;;;8438687;28;20383;-75
2024/01/01 02:31:43;;;;;;;;;;;6.80;99.90;;;;;;8410739;28;20337;-75
2024/01/01 02:35:45;;;;;;;;;;;6.80;99.90;;;;;;8440476;28;19924;-75
2024/01/01 02:39:47;;;;;;;;;;;6.80;99.90;;;;;;8415668;28;20399;-75
2024/01/01 02:43:48;;;;;;;;;;;6.80;99.90;;;;;;8439143;28;19927;-75
2024/01/01 02:47:50;;;;;;;;;;;6.80;99.90;;;;;;8438707;28;19924;-75
2024/01/01 02:51:52;;;;;;;;;;;6.80;99.90;;;;;;8424017;28;19924;-75
2024/01/01 02:55:54;;;;;;;;;;;6.90;99.90;;;;;;8417366;28;20275;-75
2024/01/01 02:59:55;;;;;;;;;;;6.90;99.90;;;;;;8434389;28;19928;-75
2024/01/01 03:03:57;;;;;;;;;;;6.90;99.90;;;;;;8445002;28;19989;-75
2024/01/01 03:07:59;;;;;;;;;;;7.00;99.90;;;;;;8437268;28;19928;-76
2024/01/01 03:12:00;;;;;;;;;;;7.00;99.90;;;;;;8431677;28;19984;-75
2024/01/01 03:16:02;;;;;;;;;;;7.00;99.90;;;;;;8438793;28;19932;-76
2024/01/01 03:20:04;;;;;;;;;;;7.10;99.90;;;;;;8433028;28;19971;-75
2024/01/01 03:24:06;;;;;;;;;;;7.10;99.90;;;;;;8435212;28;19928;-76
2024/01/01 03:28:08;;;;;;;;;;;7.10;99.90;;;;;;8439128;28;19935;-75
2024/01/01 03:32:09;;;;;;;;;;;7.10;99.90;;;;;;8431646;28;20015;-75
2024/01/01 03:36:12;;;;;;;;;;;7.10;99.90;;;;;;8433521;28;19928;-75
2024/01/01 03:40:13;;;;;;;;;;;7.20;99.90;;;;;;8438978;28;20410;-76
2024/01/01 03:44:15;;;;;;;;;;;7.20;99.90;;;;;;8449549;28;20022;-76
2024/01/01 03:48:17;;;;;;;;;;;7.20;99.90;;;;;;8444594;28;19924;-75
2024/01/01 03:52:19;;;;;;;;;;;7.20;99.90;;;;;;8420079;28;20402;-75
2024/01/01 03:56:20;;;;;;;;;;;7.20;99.90;;;;;;8417922;28;19928;-75
2024/01/01 04:00:23;;;;;;;;;;;7.20;99.90;;;;;;8431849;28;20042;-76
2024/01/01 04:04:24;;;;;;;;;;;7.20;99.90;;;;;;8419856;28;19970;-75
2024/01/01 04:08:26;;;;;;;;;;;7.30;99.90;;;;;;8426899;28;19931;-76
2024/01/01 04:12:28;;;;;;;;;;;7.30;99.90;;;;;;8440796;28;19983;-75
2024/01/01 04:16:29;;;;;;;;;;;7.30;99.90;;;;;;8443596;28;19928;-75
2024/01/01 04:20:31;;;;;;;;;;;7.30;99.90;;;;;;8418670;28;19924;-76
2024/01/01 04:24:33;;;;;;;;;;;7.40;99.90;;;;;;8448476;28;19975;-75
2024/01/01 04:28:34;;;;;;;;;;;7.40;99.90;;;;;;8458336;28;19974;-75
2024/01/01 04:32:36;;;;;;;;;;;7.40;99.90;;;;;;8449854;28;19924;-75
2024/01/01 04:36:39;;;;;;;;;;;7.40;99.90;;;;;;8438626;28;19924;-75
2024/01/01 04:40:40;;;;;;;;;;;7.30;99.90;;;;;;8441882;28;19924;-75
2024/01/01 04:44:42;;;;;;;;;;;7.30;99.90;;;;;;8413553;28;19924;-76
2024/01/01 04:48:44;;;;;;;;;;;7.20;99.90;;;;;;8423378;28;19924;-75
2024/01/01 04:52:45;;;;;;;;;;;7.20;99.90;;;;;;8444907;28;19930;-75
2024/01/01 04:56:47;;;;;;;;;;;7.20;99.90;;;;;;8444259;28;19924;-75
2024/01/01 05:00:49;;;;;;;;;;;7.20;99.90;;;;;;8446048;28;19932;-75
2024/01/01 05:04:51;;;;;;;;;;;7.20;99.90;;;;;;8427339;28;20334;-75
2024/01/01 05:08:52;;;;;;;;;;;7.20;99.90;;;;;;8419803;28;20294;-75
2024/01/01 05:12:54;;;;;;;;;;;7.20;99.90;;;;;;8429820;28;19923;-75
2024/01/01 05:16:56;;;;;;;;;;;7.20;99.90;;;;;;8457644;28;20283;-75
2024/01/01 05:20:58;;;;;;;;;;;7.20;99.90;;;;;;8440498;28;19924;-75
2024/01/01 05:24:59;;;;;;;;;;;7.10;99.90;;;;;;8442736;28;19924;-75
2024/01/01 05:29:01;;;;;;;;;;;7.10;99.90;;;;;;8424806;28;19935;-75
2024/01/01 05:33:03;;;;;;;;;;;7.10;99.90;;;;;;8443882;28;20449;-75
2024/01/01 05:37:04;;;;;;;;;;;7.10;99.90;;;;;;8450859;28;19973;-75
2024/01/01 05:41:06;;;;;;;;;;;7.10;99.90;;;;;;8449328;28;19946;-75
2024/01/01 05:45:08;;;;;;;;;;;7.10;99.90;;;;;;8427704;28;19967;-75
2024/01/01 05:49:09;;;;;;;;;;;7.10;99.90;;;;;;8435662;28;19924;-74
2024/01/01 05:53:11;;;;;;;;;;;7.10;99.90;;;;;;8434847;28;20358;-75
2024/01/01 05:57:13;;;;;;;;;;;7.10;99.90;;;;;;8427004;28;19924;-75
2024/01/01 06:01:15;;;;;;;;;;;7.10;99.90;;;;;;8446990;28;19928;-74
2024/01/01 06:05:16;;;;;;;;;;;7.10;99.90;;;;;;8445027;28;19932;-74
2024/01/01 06:09:18;;;;;;;;;;;7.10;99.90;;;;;;8420145;28;19930;-74
2024/01/01 06:13:20;;;;;;;;;;;7.10;99.90;;;;;;8436308;28;19935;-75
2024/01/01 06:17:22;;;;;;;;;;;7.10;99.90;;;;;;8440808;28;20367;-74
2024/01/01 06:21:23;;;;;;;;;;;7.10;99.90;;;;;;8440363;28;20422;-74
2024/01/01 06:25:25;;;;;;;;;;;7.10;99.90;;;;;;8438948;28;20409;-75
2024/01/01 06:29:27;;;;;;;;;;;7.20;99.90;;;;;;8450595;28;19924;-74
2024/01/01 06:33:29;;;;;;;;;;;7.20;99.90;;;;;;8429593;28;20293;-74
2024/01/01 06:37:31;;;;;;;;;;;7.20;99.90;;;;;;8419852;28;20291;-74
2024/01/01 06:41:33;;;;;;;;;;;7.20;99.90;;;;;;8418215;28;19985;-74
2024/01/01 06:45:34;;;;;;;;;;;7.10;99.90;;;;;;8433497;28;19928;-74
2024/01/01 06:49:36;;;;;;;;;;;7.10;99.90;;;;;;8417066;28;19924;-74
2024/01/01 06:53:38;;;;;;;;;;;7.10;99.90;;;;;;8428558;28;19971;-74
2024/01/01 06:57:40;;;;;;;;;;;7.10;99.90;;;;;;8434937;28;19977;-74
2024/01/01 07:01:43;;;;;;;;;;;7.10;99.90;;;;;;8432833;28;19929;-74
2024/01/01 07:10:48;;;;;;;;;;;7.10;99.90;;;;;;8436666;28;19993;-74
2024/01/01 07:14:50;;;;;;;;;;;7.10;99.90;;;;;;8422052;28;19924;-74
2024/01/01 07:18:51;;;;;;;;;;;7.10;99.90;;;;;;8420455;28;19928;-74
2024/01/01 07:22:53;;;;;;;;;;;7.10;99.90;;;;;;8430781;28;19927;-74
2024/01/01 07:26:55;;;;;;;;;;;7.10;99.90;;;;;;8424394;28;19924;-74
2024/01/01 07:30:58;;;;;;;;;;;7.10;99.90;;;;;;8409323;28;20339;-74
2024/01/01 07:35:00;;;;;;;;;;;7.10;99.90;;;;;;8428655;28;19924;-74
2024/01/01 07:39:02;;;;;;;;;;;7.10;99.90;;;;;;8439211;28;19924;-74
2024/01/01 07:43:04;;;;;;;;;;;7.00;99.90;;;;;;8418149;28;19924;-75
2024/01/01 07:47:05;;;;;;;;;;;7.00;99.90;;;;;;8427491;28;20240;-75
2024/01/01 07:51:07;;;;;;;;;;;7.00;99.90;;;;;;8427767;28;20298;-75
2024/01/01 07:55:11;;;;;;;;;;;7.00;99.90;;;;;;8413660;28;20663;-75
2024/01/01 07:59:12;;;;;;;;;;;7.00;99.90;;;;;;8444086;28;20291;-75
2024/01/01 08:03:14;;;;;;;;;;;7.00;99.90;;;;;;8426673;28;19931;-75
2024/01/01 08:07:16;;;;;;;;;;;7.00;99.90;;;;;;8434689;28;20337;-75
2024/01/01 08:11:18;;;;;;;;;;;7.00;99.90;;;;;;8447678;28;20287;-75
2024/01/01 08:15:22;;;;;;;;;;;7.00;99.90;;;;;;8420249;28;19963;-75
2024/01/01 08:19:24;;;;;;;;;;;7.00;99.90;;;;;;8441614;28;19928;-76
2024/01/01 08:23:26;;;;;;;;;;;7.00;99.90;;;;;;8423669;28;19931;-76
2024/01/01 08:27:28;;;;;;;;;;;7.00;99.90;;;;;;8421516;28;20336;-76
2024/01/01 08:31:29;;;;;;;;;;;7.00;99.90;;;;;;8441343;28;19935;-76
2024/01/01 08:35:31;;;;;;;;;;;6.90;99.90;;;;;;8418845;28;19935;-76
2024/01/01 08:39:33;;;;;;;;;;;6.90;99.90;;;;;;8427084;28;20386;-76
2024/01/01 08:43:35;;;;;;;;;;;6.90;99.90;;;;;;8434201;28;19932;-76
2024/01/01 08:47:36;;;;;;;;;;;6.90;99.90;;;;;;8418387;28;19963;-76
2024/01/01 08:51:41;;;;;;;;;;;6.90;99.90;;;;;;8441554;28;19924;-76
2024/01/01 08:55:43;;;;;;;;;;;6.90;99.90;;;;;;8432983;28;20381;-76
2024/01/01 08:59:45;;;;;;;;;;;6.90;99.90;;;;;;8429037;28;19924;-76
2024/01/01 09:03:46;;;;;;;;;;;6.90;99.90;;;;;;8426793;28;20363;-76
2024/01/01 09:07:48;;;;;;;;;;;6.90;99.90;;;;;;8440160;28;19932;-75
2024/01/01 09:11:50;;;;;;;;;;;6.90;99.90;;;;;;8442476;28;19992;-75
2024/01/01 09:15:52;;;;;;;;;;;6.90;99.90;;;;;;8431387;28;19971;-76
2024/01/01 09:19:54;;;;;;;;;;;6.90;99.90;;;;;;8434135;28;19925;-75
2024/01/01 09:24:00;;;;;;;;;;;6.90;99.90;;;;;;8422815;28;19970;-75
2024/01/01 09:28:02;;;;;;;;;;;6.90;99.90;;;;;;8437877;28;19985;-75
2024/01/01 09:32:05;;;;;;;;;;;6.90;99.90;;;;;;8444172;28;19924;-75
2024/01/01 09:36:07;;;;;;;;;;;6.90;99.90;;;;;;8445621;28;20378;-75
2024/01/01 09:40:10;;;;;;;;;;;6.90;99.90;;;;;;8417511;28;20379;-75
2024/01/01 09:44:12;;;;;;;;;;;7.00;99.90;;;;;;8419019;28;19924;-75
2024/01/01 09:48:14;;;;;;;;;;;7.00;99.90;;;;;;8435810;28;19924;-76
2024/01/01 09:52:16;;;;;;;;;;;7.00;99.90;;;;;;8420301;28;19924;-75
2024/01/01 09:56:18;;;;;;;;;;;7.00;99.90;;;;;;8449331;28;19932;-75
2024/01/01 10:00:21;;;;;;;;;;;7.00;99.90;;;;;;8436081;28;20356;-76
2024/01/01 10:04:22;;;;;;;;;;;7.00;99.90;;;;;;8428241;28;19928;-76
2024/01/01 10:08:26;;;;;;;;;;;7.00;99.90;;;;;;8432498;28;19924;-76
2024/01/01 10:12:28;;;;;;;;;;;7.10;99.90;;;;;;8428407;28;20441;-75
2024/01/01 10:16:33;;;;;;;;;;;7.00;99.90;;;;;;8421943;28;19950;-76
2024/01/01 10:20:35;;;;;;;;;;;7.10;99.90;;;;;;8429202;28;19943;-76
2024/01/01 10:24:36;;;;;;;;;;;7.10;99.90;;;;;;8412361;28;20359;-76
2024/01/01 10:28:40;;;;;;;;;;;7.10;99.90;;;;;;8418819;28;19927;-76
2024/01/01 10:32:42;;;;;;;;;;;7.10;99.90;;;;;;8419224;28;19931;-76
2024/01/01 10:36:44;;;;;;;;;;;7.10;99.90;;;;;;8418038;28;19924;-76
2024/01/01 10:40:46;;;;;;;;;;;7.10;99.90;;;;;;8433739;28;19931;-76
2024/01/01 10:44:48;;;;;;;;;;;7.30;99.90;;;;;;8425740;28;20331;-76
2024/01/01 10:48:50;;;;;;;;;;;7.60;99.90;;;;;;8428649;28;19928;-76
2024/01/01 10:53:11;;;;;;;;;;;7.90;99.90;;;;;;8431508;28;19974;-76
2024/01/01 10:57:22;;;;;;;;;;;7.90;99.90;;;;;;8441715;28;19928;-76
2024/01/01 11:01:24;;;;;;;;;;;7.80;99.90;;;;;;8419198;28;19932;-76
2024/01/01 11:05:33;;;;;;;;;;;7.70;99.90;;;;;;8447030;28;19946;-76
2024/01/01 11:09:35;;;;;;;;;;;7.80;99.90;;;;;;8430691;28;19934;-76
2024/01/01 11:13:37;;;;;;;;;;;7.70;99.90;;;;;;8413322;28;19935;-76
2024/01/01 11:17:38;;;;;;;;;;;7.90;99.90;;;;;;8410912;28;19924;-76
2024/01/01 11:21:40;;;;;;;;;;;8.00;99.90;;;;;;8409079;28;19935;-76
2024/01/01 11:25:42;;;;;;;;;;;8.40;99.90;;;;;;8432785;28;19931;-76
2024/01/01 11:29:43;;;;;;;;;;;9.00;99.90;;;;;;8416949;28;20348;-76
2024/01/01 11:33:45;;;;;;;;;;;9.40;99.90;;;;;;8429285;28;20437;-77
2024/01/01 11:37:47;;;;;;;;;;;9.50;99.90;;;;;;8409043;28;20002;-76
2024/01/01 11:41:49;;;;;;;;;;;9.50;99.90;;;;;;8408794;28;19924;-76
2024/01/01 11:45:53;;;;;;;;;;;9.60;99.90;;;;;;8433194;28;19936;-76
2024/01/01 11:50:04;;;;;;;;;;;9.80;99.90;;;;;;8436571;28;20010;-76
2024/01/01 11:54:07;;;;;;;;;;;10.00;99.90;;;;;;8423402;28;19932;-76
2024/01/01 11:58:09;;;;;;;;;;;9.70;99.90;;;;;;8435460;28;20387;-76
2024/01/01 12:02:11;;;;;;;;;;;9.50;99.90;;;;;;8428799;28;19942;-76
2024/01/01 12:06:14;;;;;;;;;;;9.20;99.90;;;;;;8432405;28;19924;-76
2024/01/01 12:10:20;;;;;;;;;;;8.90;99.90;;;;;;8416079;28;20015;-76
2024/01/01 12:14:25;;;;;;;;;;;8.70;99.90;;;;;;8425801;28;20019;-76
2024/01/01 12:18:27;;;;;;;;;;;8.60;99.90;;;;;;8430091;28;19928;-76
2024/01/01 12:22:29;;;;;;;;;;;8.50;99.90;;;;;;8416088;28;20342;-76
2024/01/01 12:26:34;;;;;;;;;;;8.30;99.90;;;;;;8429869;28;19968;-75
2024/01/01 12:30:36;;;;;;;;;;;8.20;99.90;;;;;;8435021;28;19928;-75
2024/01/01 12:34:38;;;;;;;;;;;8.00;99.90;;;;;;8430212;28;19930;-75
2024/01/01 12:38:40;;;;;;;;;;;7.80;99.90;;;;;;8440604;28;20027;-75
2024/01/01 12:42:42;;;;;;;;;;;7.60;99.90;;;;;;8435808;28;19924;-75
2024/01/01 12:46:43;;;;;;;;;;;7.60;99.90;;;;;;8435011;28;19935;-75
2024/01/01 12:50:45;;;;;;;;;;;7.60;99.90;;;;;;8439264;28;19960;-75
2024/01/01 12:54:47;;;;;;;;;;;7.60;99.90;;;;;;8431780;28;19959;-75
2024/01/01 12:58:49;;;;;;;;;;;7.60;99.90;;;;;;8422973;28;20436;-76
2024/01/01 13:02:50;;;;;;;;;;;7.60;99.90;;;;;;8431658;28;19981;-76
2024/01/01 13:06:54;;;;;;;;;;;7.60;99.90;;;;;;8417979;28;19931;-76
2024/01/01 13:10:55;;;;;;;;;;;7.50;99.90;;;;;;8414963;28;19923;-76
2024/01/01 13:14:57;;;;;;;;;;;7.50;99.90;;;;;;8441876;28;19924;-76
2024/01/01 13:18:59;;;;;;;;;;;7.50;99.90;;;;;;8417062;28;19932;-76
2024/01/01 13:23:01;;;;;;;;;;;7.50;99.90;;;;;;8435400;28;19932;-75
2024/01/01 13:27:03;;;;;;;;;;;7.40;99.90;;;;;;8439377;28;19978;-75
2024/01/01 13:31:05;;;;;;;;;;;7.40;99.90;;;;;;8434588;28;20387;-75
2024/01/01 13:35:07;;;;;;;;;;;7.50;99.90;;;;;;8435627;28;19931;-76
2024/01/01 13:39:08;;;;;;;;;;;7.60;99.90;;;;;;8440094;28;20367;-76
2024/01/01 13:43:10;;;;;;;;;;;7.60;99.90;;;;;;8439327;28;19924;-76
2024/01/01 13:47:12;;;;;;;;;;;7.60;99.90;;;;;;8426714;28;19932;-76
2024/01/01 13:51:17;;;;;;;;;;;7.60;99.90;;;;;;8414235;28;19967;-77
2024/01/01 13:55:20;;;;;;;;;;;7.60;99.90;;;;;;8371057;28;19932;-76
2024/01/01 13:59:22;;;;;;;;;;;7.60;99.90;;;;;;8370655;28;20002;-76
2024/01/01 14:03:24;;;;;;;;;;;7.50;99.90;;;;;;8378099;28;20287;-76
2024/01/01 14:07:26;;;;;;;;;;;7.50;99.90;;;;;;8355652;28;19978;-75
2024/01/01 14:11:27;;;;;;;;;;;7.50;99.90;;;;;;8375165;28;19959;-76
2024/01/01 14:15:29;;;;;;;;;;;7.50;99.90;;;;;;8367517;28;20340;-75
2024/01/01 14:19:31;;;;;;;;;;;7.60;99.90;;;;;;8375562;28;19932;-75
2024/01/01 14:23:33;;;;;;;;;;;7.60;99.90;;;;;;8372185;28;19978;-76
2024/01/01 14:27:34;;;;;;;;;;;7.60;99.90;;;;;;8360388;28;19939;-75
2024/01/01 14:31:36;;;;;;;;;;;7.70;99.90;;;;;;8371708;28;20961;-76
2024/01/01 14:35:38;;;;;;;;;;;7.60;99.90;;;;;;8371859;28;19963;-76
2024/01/01 14:39:39;;;;;;;;;;;7.60;99.90;;;;;;8351364;28;19924;-76
2024/01/01 14:43:41;;;;;;;;;;;7.70;99.90;;;;;;8378471;28;19936;-75
2024/01/01 14:47:43;;;;;;;;;;;7.80;99.90;;;;;;8373801;28;19935;-76
2024/01/01 14:51:45;;;;;;;;;;;7.90;99.90;;;;;;8381093;28;19924;-76
2024/01/01 14:55:47;;;;;;;;;;;7.90;99.90;;;;;;8424100;28;20264;-76
2024/01/01 14:59:50;;;;;;;;;;;8.00;99.90;;;;;;8419547;28;20404;-75
2024/01/01 15:03:52;;;;;;;;;;;8.10;99.90;;;;;;8425758;28;19924;-76
2024/01/01 15:07:55;;;;;;;;;;;8.10;99.90;;;;;;8402680;28;19924;-76
2024/01/01 15:11:57;;;;;;;;;;;8.10;99.90;;;;;;8422572;28;19982;-76
2024/01/01 15:15:59;;;;;;;;;;;8.00;99.90;;;;;;8423505;28;19985;-76
2024/01/01 15:20:02;;;;;;;;;;;7.80;99.90;;;;;;8418655;28;19932;-76
2024/01/01 15:24:04;;;;;;;;;;;7.70;99.90;;;;;;8417616;28;19950;-76
2024/01/01 15:28:06;;;;;;;;;;;7.60;99.90;;;;;;8419235;28;19932;-75
2024/01/01 15:32:10;;;;;;;;;;;7.60;99.90;;;;;;8415235;28;19961;-76
2024/01/01 15:36:12;;;;;;;;;;;7.60;99.90;;;;;;8427561;28;19947;-76
2024/01/01 15:40:14;;;;;;;;;;;7.50;99.90;;;;;;8428010;28;19936;-75
2024/01/01 15:44:16;;;;;;;;;;;7.50;99.90;;;;;;8411199;28;19939;-75
2024/01/01 15:48:18;;;;;;;;;;;7.50;99.90;;;;;;8403367;28;20301;-75
2024/01/01 15:52:20;;;;;;;;;;;7.40;99.90;;;;;;8421673;28;19939;-76
2024/01/01 15:56:22;;;;;;;;;;;7.30;99.90;;;;;;8420062;28;19932;-75
2024/01/01 16:00:24;;;;;;;;;;;7.30;99.90;;;;;;8396010;28;20637;-76
2024/01/01 16:04:26;;;;;;;;;;;7.20;99.90;;;;;;8406633;28;19924;-75
2024/01/01 16:08:28;;;;;;;;;;;7.30;99.90;;;;;;8413747;28;19923;-76
2024/01/01 16:12:30;;;;;;;;;;;7.30;99.90;;;;;;8432372;28;19924;-76
2024/01/01 16:16:34;;;;;;;;;;;7.30;99.90;;;;;;8431416;28;19932;-76
2024/01/01 16:20:35;;;;;;;;;;;7.20;99.90;;;;;;8429745;28;19932;-76
2024/01/01 16:24:37;;;;;;;;;;;7.30;99.90;;;;;;8425256;28;19936;-76
2024/01/01 16:28:39;;;;;;;;;;;7.30;99.90;;;;;;8429142;28;19957;-76
2024/01/01 16:32:40;;;;;;;;;;;7.30;99.90;;;;;;8411960;28;20351;-76
2024/01/01 16:36:50;;;;;;;;;;;7.30;99.90;;;;;;8420594;28;19932;-76
2024/01/01 16:40:52;;;;;;;;;;;7.30;99.90;;;;;;8411809;28;19989;-76
2024/01/01 16:44:53;;;;;;;;;;;7.30;99.90;;;;;;8422936;28;20457;-76
2024/01/01 16:48:55;;;;;;;;;;;7.30;99.90;;;;;;8425118;28;19924;-76
2024/01/01 16:52:57;;;;;;;;;;;7.40;99.90;;;;;;8422140;28;20271;-76
2024/01/01 16:56:58;;;;;;;;;;;7.40;99.90;;;;;;8421520;28;19928;-75
2024/01/01 17:01:00;;;;;;;;;;;7.50;99.90;;;;;;8420425;28;19932;-76
2024/01/01 17:05:03;;;;;;;;;;;7.50;99.90;;;;;;8433896;28;20286;-75
2024/01/01 17:09:05;;;;;;;;;;;7.50;99.90;;;;;;8408494;28;19924;-76
2024/01/01 17:13:07;;;;;;;;;;;7.50;99.90;;;;;;8433236;28;20386;-76
2024/01/01 17:17:09;;;;;;;;;;;7.50;99.90;;;;;;8410986;28;19930;-75
2024/01/01 17:21:14;;;;;;;;;;;7.40;99.90;;;;;;8424912;28;20434;-76
2024/01/01 17:25:18;;;;;;;;;;;7.40;99.90;;;;;;8424592;28;19939;-76
2024/01/01 17:29:20;;;;;;;;;;;7.30;99.90;;;;;;8408558;28;19925;-76
2024/01/01 17:33:22;;;;;;;;;;;7.20;99.90;;;;;;8418741;28;19931;-76
2024/01/01 17:37:25;;;;;;;;;;;7.20;99.90;;;;;;8417720;28;20385;-76
2024/01/01 17:41:27;;;;;;;;;;;7.10;99.90;;;;;;8426763;28;19928;-76
2024/01/01 17:45:29;;;;;;;;;;;7.00;99.90;;;;;;8426195;28;19924;-76
2024/01/01 17:49:33;;;;;;;;;;;7.00;99.90;;;;;;8413573;28;19970;-75
2024/01/01 17:53:36;;;;;;;;;;;6.90;99.90;;;;;;8411459;28;19932;-76
2024/01/01 17:57:38;;;;;;;;;;;6.90;99.90;;;;;;8408144;28;19932;-76
2024/01/01 18:01:41;;;;;;;;;;;6.90;99.90;;;;;;8417504;28;19928;-76
2024/01/01 18:05:43;;;;;;;;;;;6.90;99.90;;;;;;8429001;28;20029;-76
2024/01/01 18:09:44;;;;;;;;;;;6.80;99.90;;;;;;8424770;28;19931;-76
2024/01/01 18:13:46;;;;;;;;;;;6.80;99.90;;;;;;8425202;28;19928;-76
2024/01/01 18:17:50;;;;;;;;;;;6.80;99.90;;;;;;8407747;28;20018;-76
2024/01/01 18:21:52;;;;;;;;;;;6.80;99.90;;;;;;8410785;28;19928;-76
2024/01/01 18:25:54;;;;;;;;;;;6.80;99.90;;;;;;8423120;28;20015;-75
2024/01/01 18:29:55;;;;;;;;;;;6.70;99.90;;;;;;8404611;28;19931;-76
2024/01/01 18:33:57;;;;;;;;;;;6.70;99.90;;;;;;8408256;28;21146;-76
2024/01/01 18:37:59;;;;;;;;;;;6.70;99.90;;;;;;8427221;28;19932;-76
2024/01/01 18:42:01;;;;;;;;;;;6.70;99.90;;;;;;8418645;28;19930;-76
2024/01/01 18:46:06;;;;;;;;;;;6.60;99.90;;;;;;8412922;28;19934;-76
2024/01/01 18:50:08;;;;;;;;;;;6.60;99.90;;;;;;8403373;28;19993;-75
2024/01/01 18:54:11;;;;;;;;;;;6.60;99.90;;;;;;8419316;28;20295;-76
2024/01/01 18:58:13;;;;;;;;;;;6.60;99.90;;;;;;8419075;28;19924;-76
2024/01/01 19:02:15;;;;;;;;;;;6.60;99.90;;;;;;8402186;28;20018;-76
2024/01/01 19:06:17;;;;;;;;;;;6.60;99.90;;;;;;8403666;28;19946;-76
2024/01/01 19:10:19;;;;;;;;;;;6.60;99.90;;;;;;8401183;28;20393;-75
2024/01/01 19:14:21;;;;;;;;;;;6.60;99.90;;;;;;8401941;28;20283;-76
2024/01/01 19:18:24;;;;;;;;;;;6.60;99.90;;;;;;8411607;28;20624;-76
2024/01/01 19:22:26;;;;;;;;;;;6.60;99.90;;;;;;8418593;28;19928;-75
2024/01/01 19:26:27;;;;;;;;;;;6.60;99.90;;;;;;8422826;28;19938;-76
2024/01/01 19:30:30;;;;;;;;;;;6.60;99.90;;;;;;8422184;28;20337;-76
2024/01/01 19:34:31;;;;;;;;;;;6.60;99.90;;;;;;8429967;28;19966;-76
2024/01/01 19:38:33;;;;;;;;;;;6.60;99.90;;;;;;8418213;28;19974;-76
2024/01/01 19:42:35;;;;;;;;;;;6.60;99.90;;;;;;8423437;28;20287;-76
2024/01/01 19:46:36;;;;;;;;;;;6.60;99.90;;;;;;8417789;28;19931;-76
2024/01/01 19:50:38;;;;;;;;;;;6.60;99.90;;;;;;8423370;28;19935;-76
2024/01/01 19:54:40;;;;;;;;;;;6.60;99.90;;;;;;8423453;28;19924;-75
2024/01/01 19:58:41;;;;;;;;;;;6.70;99.90;;;;;;8440075;28;20295;-75
2024/01/01 20:02:43;;;;;;;;;;;6.70;99.90;;;;;;8436146;28;19932;-76
2024/01/01 20:06:45;;;;;;;;;;;6.70;99.90;;;;;;8423023;28;20239;-76
2024/01/01 20:10:46;;;;;;;;;;;6.80;99.90;;;;;;8435129;28;20287;-75
2024/01/01 20:14:48;;;;;;;;;;;6.80;99.90;;;;;;8425346;28;19928;-75
2024/01/01 20:18:50;;;;;;;;;;;6.80;99.90;;;;;;8433875;28;19931;-76
2024/01/01 20:22:52;;;;;;;;;;;6.80;99.90;;;;;;8435502;28;19924;-76
2024/01/01 20:26:54;;;;;;;;;;;6.90;99.90;;;;;;8436132;28;19981;-76
2024/01/01 20:30:57;;;;;;;;;;;6.90;99.90;;;;;;8435606;28;20379;-76
2024/01/01 20:34:59;;;;;;;;;;;6.90;99.90;;;;;;8437208;28;20375;-76
2024/01/01 20:39:05;;;;;;;;;;;6.90;99.90;;;;;;8435219;28;20437;-76
2024/01/01 20:43:07;;;;;;;;;;;6.90;99.90;;;;;;8430706;28;19932;-76
2024/01/01 20:47:09;;;;;;;;;;;6.90;99.90;;;;;;8435290;28;19935;-76
2024/01/01 20:51:10;;;;;;;;;;;6.90;99.90;;;;;;8430583;28;20320;-76
2024/01/01 20:55:12;;;;;;;;;;;6.90;99.90;;;;;;8429013;28;20500;-76
2024/01/01 20:59:14;;;;;;;;;;;7.00;99.90;;;;;;8411992;28;19928;-76
2024/01/01 21:03:16;;;;;;;;;;;7.00;99.90;;;;;;8422218;28;19978;-76
2024/01/01 21:07:18;;;;;;;;;;;7.00;99.90;;;;;;8426922;28;19927;-76
2024/01/01 21:11:20;;;;;;;;;;;7.00;99.90;;;;;;8428095;28;19930;-76
2024/01/01 21:15:21;;;;;;;;;;;7.00;99.90;;;;;;8407684;28;19969;-76
2024/01/01 21:19:23;;;;;;;;;;;7.10;99.90;;;;;;8428753;28;19984;-76
2024/01/01 21:23:26;;;;;;;;;;;7.10;99.90;;;;;;8430583;28;20261;-76
2024/01/01 21:27:28;;;;;;;;;;;7.10;99.90;;;;;;8426556;28;19968;-76
2024/01/01 21:31:30;;;;;;;;;;;7.10;99.90;;;;;;8427019;28;19928;-76
2024/01/01 21:35:32;;;;;;;;;;;7.20;99.90;;;;;;8428909;28;19947;-76
2024/01/01 21:39:35;;;;;;;;;;;7.20;99.90;;;;;;8410892;28;19932;-76
2024/01/01 21:43:37;;;;;;;;;;;7.20;99.90;;;;;;8428650;28;20503;-76
2024/01/01 21:47:39;;;;;;;;;;;7.20;99.90;;;;;;8425438;28;19974;-76
2024/01/01 21:51:43;;;;;;;;;;;7.30;99.90;;;;;;8428496;28;19928;-76
2024/01/01 21:55:45;;;;;;;;;;;7.30;99.90;;;;;;8405843;28;20367;-76
2024/01/01 21:59:47;;;;;;;;;;;7.30;99.90;;;;;;8410494;28;19924;-76
2024/01/01 22:03:48;;;;;;;;;;;7.30;99.90;;;;;;8437646;28;19932;-76
2024/01/01 22:12:54;;;;;;;;;;;7.30;99.90;;;;;;8439379;28;19975;-76
2024/01/01 22:16:56;;;;;;;;;;;7.30;99.90;;;;;;8433209;28;19924;-76
2024/01/01 22:20:57;;;;;;;;;;;7.30;99.90;;;;;;8432562;28;19934;-76
2024/01/01 22:24:59;;;;;;;;;;;7.30;99.90;;;;;;8430356;28;19924;-76
2024/01/01 22:29:01;;;;;;;;;;;7.30;99.90;;;;;;8415991;28;19978;-76
2024/01/01 22:33:03;;;;;;;;;;;7.30;99.90;;;;;;8438761;28;19954;-76
2024/01/01 22:37:05;;;;;;;;;;;7.40;99.90;;;;;;8434807;28;19923;-76
2024/01/01 22:41:07;;;;;;;;;;;7.30;99.90;;;;;;8438496;28;19932;-76
2024/01/01 22:45:09;;;;;;;;;;;7.30;99.90;;;;;;8413942;28;19928;-76
2024/01/01 22:49:11;;;;;;;;;;;7.30;99.90;;;;;;8416330;28;19934;-76
2024/01/01 22:53:13;;;;;;;;;;;7.30;99.90;;;;;;8435763;28;19959;-76
2024/01/01 22:57:14;;;;;;;;;;;7.20;99.90;;;;;;8414718;28;19928;-76
2024/01/01 23:01:16;;;;;;;;;;;7.20;99.90;;;;;;8424613;28;19928;-76
2024/01/01 23:05:18;;;;;;;;;;;7.20;99.90;;;;;;8422530;28;19946;-76
2024/01/01 23:09:20;;;;;;;;;;;7.20;99.90;;;;;;8412855;28;19928;-76
2024/01/01 23:13:21;;;;;;;;;;;7.20;99.90;;;;;;8422769;28;19924;-76
2024/01/01 23:17:23;;;;;;;;;;;7.10;99.90;;;;;;8436475;28;19924;-76
2024/01/01 23:21:25;;;;;;;;;;;7.10;99.90;;;;;;8411881;28;19950;-76
2024/01/01 23:25:27;;;;;;;;;;;7.10;99.90;;;;;;8437062;28;20266;-76
2024/01/01 23:29:29;;;;;;;;;;;7.10;99.90;;;;;;8409144;28;20371;-76
2024/01/01 23:33:31;;;;;;;;;;;7.10;99.90;;;;;;8413853;28;20276;-76
2024/01/01 23:37:33;;;;;;;;;;;7.10;99.90;;;;;;8409586;28;20276;-75
2024/01/01 23:41:34;;;;;;;;;;;7.10;99.90;;;;;;8413831;28;20256;-76
2024/01/01 23:45:36;;;;;;;;;;;7.10;99.90;;;;;;8421804;28;20382;-76
2024/01/01 23:54:41;;;;;;;;;;;7.10;99.90;;;;;;8424333;28;20338;-75
